Time;durP1;ratioP1;P1;durP2;ratioP2;P2;SDS_P1;SDS_P2;PMS_P1;PMS_P2;Temp;Humidity;BMP_temperature;BMP_pressure;BME280_temperature;BME280_humidity;BME280_pressure;Samples;Min_cycle;Max_cycle;Signal;HPM_P1;HPM_P2
2023/08/02 00:01:44;;;;;;;6.87;4.37;;;;;;;17.64;88.92;98884.25;4216165;28;22015;-67
2023/08/02 00:04:11;;;;;;;8.43;4.40;;;;;;;17.65;88.43;98878.53;4216736;28;23700;-68
2023/08/02 00:06:37;;;;;;;7.57;4.10;;;;;;;17.61;88.96;98885.53;4212416;28;22558;-65
2023/08/02 00:09:04;;;;;;;7.90;4.17;;;;;;;17.64;88.53;98887.78;4227853;28;22073;-67
2023/08/02 00:11:31;;;;;;;9.73;4.20;;;;;;;17.71;88.68;98894.00;4210194;28;20767;-64
2023/08/02 00:13:58;;;;;;;8.30;4.13;;;;;;;17.69;88.26;98893.44;4214287;28;20251;-66
2023/08/02 00:16:25;;;;;;;8.90;4.30;;;;;;;17.82;87.74;98892.41;4194221;28;22293;-65
2023/08/02 00:18:52;;;;;;;12.67;4.10;;;;;;;17.82;87.42;98883.34;4222684;28;23693;-65
2023/08/02 00:21:19;;;;;;;11.13;4.30;;;;;;;17.72;87.89;98882.00;4218530;28;20243;-66
2023/08/02 00:23:45;;;;;;;7.33;4.07;;;;;;;17.70;87.84;98883.31;4218131;28;21816;-65
2023/08/02 00:26:12;;;;;;;10.20;3.70;;;;;;;17.70;87.64;98894.25;4209974;28;21312;-66
2023/08/02 00:28:38;;;;;;;6.93;3.60;;;;;;;17.76;87.31;98881.53;4215678;28;20236;-67
2023/08/02 00:31:05;;;;;;;7.27;4.27;;;;;;;17.66;87.53;98888.41;4218783;28;22473;-68
2023/08/02 00:33:31;;;;;;;6.70;4.40;;;;;;;17.56;88.06;98888.97;4216915;28;20232;-66
2023/08/02 00:35:59;;;;;;;5.97;3.70;;;;;;;17.72;87.86;98886.66;4214834;28;20299;-68
2023/08/02 00:38:25;;;;;;;9.07;4.13;;;;;;;17.68;87.41;98889.03;4222773;28;20381;-66
2023/08/02 00:40:52;;;;;;;7.77;4.00;;;;;;;17.70;87.39;98900.56;4220099;28;20241;-68
2023/08/02 00:43:19;;;;;;;6.87;4.30;;;;;;;17.75;87.48;98905.31;4218808;28;20683;-67
2023/08/02 00:45:45;;;;;;;6.07;3.83;;;;;;;17.74;87.46;98917.38;4240174;28;20296;-64
2023/08/02 00:48:12;;;;;;;7.47;3.90;;;;;;;17.74;86.87;98903.69;4232979;28;20341;-65
2023/08/02 00:50:39;;;;;;;6.77;3.70;;;;;;;17.71;86.73;98890.44;4217715;28;23315;-68
2023/08/02 00:53:05;;;;;;;6.87;4.30;;;;;;;17.73;86.36;98896.53;4226412;28;21990;-66
2023/08/02 00:55:33;;;;;;;7.33;4.00;;;;;;;17.72;86.81;98895.69;4220438;28;20223;-68
2023/08/02 00:58:00;;;;;;;9.40;4.60;;;;;;;17.70;87.17;98900.56;4232213;28;21191;-64
2023/08/02 01:00:27;;;;;;;10.50;4.53;;;;;;;17.59;87.21;98906.81;4230621;28;22247;-66
2023/08/02 01:02:54;;;;;;;7.10;4.27;;;;;;;17.51;87.51;98896.19;4227734;28;20257;-65
2023/08/02 01:05:26;;;;;;;10.13;4.40;;;;;;;17.51;87.12;98897.03;4228630;28;20223;-65
2023/08/02 01:07:58;;;;;;;9.40;4.13;;;;;;;17.59;86.82;98901.34;4228192;28;20254;-66
2023/08/02 01:10:32;;;;;;;6.03;3.60;;;;;;;17.65;86.36;98905.88;4233493;28;20243;-65
2023/08/02 01:13:04;;;;;;;8.30;3.93;;;;;;;17.52;86.92;98915.09;4235747;28;21123;-65
2023/08/02 01:15:32;;;;;;;7.93;4.40;;;;;;;17.41;87.56;98916.72;4216779;28;20275;-66
2023/08/02 01:17:59;;;;;;;6.73;4.07;;;;;;;17.45;87.51;98917.09;4227814;28;20235;-64
2023/08/02 01:20:26;;;;;;;5.80;3.63;;;;;;;17.32;88.03;98920.00;4234428;28;25753;-68
2023/08/02 01:22:52;;;;;;;6.90;4.10;;;;;;;17.29;88.46;98915.81;4227937;28;21224;-65
2023/08/02 01:25:19;;;;;;;7.10;4.40;;;;;;;17.32;88.06;98920.00;4231396;28;21105;-68
2023/08/02 01:27:48;;;;;;;10.23;4.13;;;;;;;17.18;88.66;98916.59;4238729;28;20325;-65
2023/08/02 01:30:16;;;;;;;8.83;4.90;;;;;;;17.01;90.33;98916.34;4220659;28;20247;-66
2023/08/02 01:32:43;;;;;;;7.40;4.37;;;;;;;16.91;90.93;98908.66;4230289;28;20235;-66
2023/08/02 01:35:11;;;;;;;8.03;4.37;;;;;;;16.84;91.03;98905.16;4240239;28;20668;-67
2023/08/02 01:37:37;;;;;;;7.40;4.47;;;;;;;16.74;91.49;98892.84;4212649;28;20281;-66
2023/08/02 01:40:04;;;;;;;9.03;4.60;;;;;;;16.73;91.87;98912.19;4218818;28;20303;-64
2023/08/02 01:42:31;;;;;;;7.43;4.33;;;;;;;16.76;91.65;98907.13;4236706;28;20235;-66
2023/08/02 01:44:59;;;;;;;7.63;4.17;;;;;;;16.94;90.56;98913.72;4227677;28;20242;-66
2023/08/02 01:47:26;;;;;;;8.23;4.10;;;;;;;16.91;90.66;98911.38;4229697;28;20617;-65
2023/08/02 01:49:52;;;;;;;8.47;4.23;;;;;;;17.07;89.47;98918.19;4234170;28;20239;-65
2023/08/02 01:52:19;;;;;;;10.57;5.17;;;;;;;16.90;90.31;98918.75;4232243;28;20826;-66
2023/08/02 01:54:45;;;;;;;10.73;4.83;;;;;;;16.82;91.09;98912.75;4228509;28;21160;-65
2023/08/02 01:57:12;;;;;;;9.00;4.53;;;;;;;16.82;91.17;98919.06;4230361;28;20230;-65
2023/08/02 01:59:38;;;;;;;8.00;4.37;;;;;;;16.86;91.12;98922.16;4237367;28;20293;-65
2023/08/02 02:02:05;;;;;;;12.80;4.40;;;;;;;17.01;90.26;98924.56;4241253;28;20792;-65
2023/08/02 02:04:32;;;;;;;8.93;4.50;;;;;;;17.00;89.68;98922.88;4231086;28;20299;-67
2023/08/02 02:06:59;;;;;;;8.97;4.20;;;;;;;17.00;89.84;98926.47;4219957;28;20239;-66
2023/08/02 02:09:26;;;;;;;10.97;4.10;;;;;;;16.86;90.21;98924.91;4231413;28;20245;-65
2023/08/02 02:11:53;;;;;;;7.93;3.97;;;;;;;16.84;90.43;98932.47;4223769;28;20239;-66
2023/08/02 02:14:19;;;;;;;8.20;4.00;;;;;;;16.70;91.37;98934.50;4225599;28;20611;-66
2023/08/02 02:16:46;;;;;;;7.43;4.00;;;;;;;16.71;91.55;98939.75;4223278;28;20318;-66
2023/08/02 02:19:12;;;;;;;7.87;4.30;;;;;;;16.63;91.59;98937.31;4215887;28;20381;-67
2023/08/02 02:21:39;;;;;;;9.60;4.90;;;;;;;16.51;92.59;98931.75;4230716;28;20351;-65
2023/08/02 02:24:05;;;;;;;6.90;4.50;;;;;;;16.47;93.03;98938.69;4231728;28;20228;-67
2023/08/02 02:26:32;;;;;;;8.70;4.43;;;;;;;16.58;92.36;98932.50;4237483;28;20318;-66
2023/08/02 02:28:59;;;;;;;5.77;3.97;;;;;;;16.54;92.32;98934.00;4232475;28;20844;-66
2023/08/02 02:31:26;;;;;;;11.53;5.27;;;;;;;16.43;92.62;98930.09;4238056;28;20281;-66
2023/08/02 02:33:52;;;;;;;7.50;4.73;;;;;;;16.26;93.08;98929.84;4232351;28;21352;-65
2023/08/02 02:36:19;;;;;;;11.80;5.23;;;;;;;16.25;93.15;98936.34;4230849;28;20238;-67
2023/08/02 02:38:45;;;;;;;9.63;4.20;;;;;;;16.25;93.08;98935.53;4237605;28;20528;-65
2023/08/02 02:41:12;;;;;;;6.90;4.53;;;;;;;16.24;92.90;98926.47;4247635;28;22067;-65
2023/08/02 02:43:38;;;;;;;9.50;4.80;;;;;;;16.14;93.46;98928.88;4225638;28;20235;-67
2023/08/02 02:46:05;;;;;;;13.33;4.77;;;;;;;16.07;93.82;98928.09;4232235;28;20960;-65
2023/08/02 02:48:32;;;;;;;9.23;4.97;;;;;;;15.86;94.72;98927.41;4227894;28;20463;-65
2023/08/02 02:50:59;;;;;;;7.77;4.60;;;;;;;15.86;95.13;98921.94;4235833;28;22315;-66
2023/08/02 02:53:25;;;;;;;14.83;5.53;;;;;;;15.70;96.18;98925.97;4229402;28;22439;-66
2023/08/02 02:55:52;;;;;;;11.17;5.27;;;;;;;15.68;96.29;98933.53;4231963;28;20593;-66
2023/08/02 02:58:19;;;;;;;7.60;5.27;;;;;;;15.61;96.50;98936.31;4227995;28;20296;-66
2023/08/02 03:00:45;;;;;;;7.57;5.00;;;;;;;15.61;96.89;98939.03;4229447;28;20275;-67
2023/08/02 03:03:12;;;;;;;10.63;5.67;;;;;;;15.54;97.03;98940.94;4220091;28;20243;-67
2023/08/02 03:05:39;;;;;;;10.23;5.37;;;;;;;15.52;97.16;98943.88;4228653;28;20326;-66
2023/08/02 03:08:05;;;;;;;9.73;5.77;;;;;;;15.56;97.02;98940.72;4233982;28;21702;-65
2023/08/02 03:10:32;;;;;;;11.57;5.70;;;;;;;15.56;97.18;98944.28;4228919;28;20454;-68
2023/08/02 03:12:59;;;;;;;8.43;4.77;;;;;;;15.71;96.46;98941.28;4224515;28;20231;-64
2023/08/02 03:15:25;;;;;;;12.70;5.60;;;;;;;15.81;95.33;98952.56;4236116;28;20235;-67
2023/08/02 03:17:52;;;;;;;10.63;5.40;;;;;;;15.79;95.34;98946.50;4232063;28;20235;-68
2023/08/02 03:20:19;;;;;;;15.73;5.47;;;;;;;15.72;95.65;98953.03;4239924;28;20617;-66
2023/08/02 03:22:45;;;;;;;12.23;5.40;;;;;;;15.80;95.45;98947.31;4211069;28;20288;-65
2023/08/02 03:25:12;;;;;;;10.57;4.97;;;;;;;15.86;95.28;98938.31;4229474;28;20434;-67
2023/08/02 03:27:39;;;;;;;10.33;5.30;;;;;;;15.67;95.42;98943.59;4231625;28;21450;-65
2023/08/02 03:30:06;;;;;;;11.13;4.50;;;;;;;15.63;95.70;98945.13;4237261;28;21667;-65
2023/08/02 03:32:33;;;;;;;9.77;4.80;;;;;;;15.68;95.57;98956.19;4232153;28;20303;-65
2023/08/02 03:35:00;;;;;;;11.80;4.90;;;;;;;15.55;96.35;98952.69;4221258;28;20306;-67
2023/08/02 03:37:27;;;;;;;11.50;5.63;;;;;;;15.44;96.81;98948.75;4224608;28;21537;-68
2023/08/02 03:39:53;;;;;;;9.67;6.03;;;;;;;15.36;97.56;98953.38;4209763;28;21646;-66
2023/08/02 03:42:20;;;;;;;10.27;5.50;;;;;;;15.37;97.62;98955.06;4222194;28;20236;-69
2023/08/02 03:44:47;;;;;;;11.63;5.53;;;;;;;15.30;97.63;98956.13;4236066;28;20235;-66
2023/08/02 03:47:13;;;;;;;12.03;5.83;;;;;;;15.27;97.99;98964.75;4242934;28;21777;-66
2023/08/02 03:49:40;;;;;;;10.60;6.07;;;;;;;15.32;97.87;98963.06;4238066;28;20337;-65
2023/08/02 03:52:07;;;;;;;10.17;5.80;;;;;;;15.34;97.77;98974.56;4230476;28;21559;-65
2023/08/02 03:54:33;;;;;;;13.37;6.03;;;;;;;15.33;97.90;98969.34;4222074;28;20234;-65
2023/08/02 03:57:00;;;;;;;9.70;6.17;;;;;;;15.51;97.37;98972.22;4228161;28;21231;-65
2023/08/02 03:59:26;;;;;;;10.63;5.60;;;;;;;15.61;97.00;98969.03;4226750;28;20295;-66
2023/08/02 04:01:53;;;;;;;11.57;6.07;;;;;;;15.85;95.51;98974.84;4228540;28;22525;-68
2023/08/02 04:04:21;;;;;;;13.77;5.97;;;;;;;15.99;94.71;98968.25;4232527;28;20235;-66
2023/08/02 04:06:48;;;;;;;12.70;5.53;;;;;;;16.20;93.56;98984.50;4224884;28;23842;-66
2023/08/02 04:09:14;;;;;;;7.37;5.07;;;;;;;16.28;93.19;98985.06;4227407;28;20235;-68
2023/08/02 04:11:41;;;;;;;9.40;5.40;;;;;;;16.34;92.63;98979.75;4221830;28;20326;-67
2023/08/02 04:14:08;;;;;;;12.10;5.33;;;;;;;16.32;92.46;98985.47;4221616;28;20236;-67
2023/08/02 04:16:34;;;;;;;15.50;5.60;;;;;;;16.32;92.16;98985.47;4241040;28;20332;-64
2023/08/02 04:19:01;;;;;;;11.27;5.50;;;;;;;16.19;93.08;98982.81;4233378;28;20231;-65
2023/08/02 04:21:27;;;;;;;8.47;5.30;;;;;;;16.25;92.80;98988.22;4227807;28;20579;-64
2023/08/02 04:23:54;;;;;;;13.13;5.57;;;;;;;16.28;92.22;98979.59;4220913;28;21748;-66
2023/08/02 04:26:20;;;;;;;7.73;4.87;;;;;;;16.22;92.32;98979.63;4238454;28;20240;-66
2023/08/02 04:28:47;;;;;;;14.23;5.27;;;;;;;16.34;91.92;98983.34;4212859;28;20897;-69
2023/08/02 04:31:14;;;;;;;8.60;5.03;;;;;;;16.48;90.71;98990.38;4237421;28;20602;-66
2023/08/02 04:33:41;;;;;;;10.27;5.77;;;;;;;16.52;90.25;98988.03;4224022;28;20241;-65
2023/08/02 04:36:07;;;;;;;11.27;5.23;;;;;;;16.59;89.61;98991.56;4235336;28;20231;-66
2023/08/02 04:38:34;;;;;;;10.83;5.20;;;;;;;16.57;89.96;98993.66;4231410;28;21962;-66
2023/08/02 04:41:01;;;;;;;10.00;5.40;;;;;;;16.69;89.15;98992.97;4223190;28;20300;-65
2023/08/02 04:43:27;;;;;;;10.40;4.77;;;;;;;16.60;89.59;98992.38;4239696;28;20227;-66
2023/08/02 04:45:54;;;;;;;8.57;4.73;;;;;;;16.69;88.94;99001.16;4234904;28;22256;-68
2023/08/02 04:48:20;;;;;;;14.73;5.40;;;;;;;16.61;89.55;98999.53;4221926;28;20239;-69
2023/08/02 04:50:47;;;;;;;8.67;4.97;;;;;;;16.62;90.07;99003.94;4224270;28;20319;-67
2023/08/02 04:53:14;;;;;;;10.77;5.27;;;;;;;16.80;89.30;99009.44;4233930;28;22338;-67
2023/08/02 04:55:42;;;;;;;7.53;4.73;;;;;;;16.83;88.53;99015.53;4213091;28;20870;-67
2023/08/02 04:58:08;;;;;;;9.20;4.87;;;;;;;16.87;88.47;99017.59;4230210;28;22336;-67
2023/08/02 05:00:35;;;;;;;10.10;4.60;;;;;;;16.99;87.62;99012.25;4236658;28;21667;-66
2023/08/02 05:03:02;;;;;;;8.77;4.77;;;;;;;16.91;87.12;99013.38;4225986;28;20226;-73
2023/08/02 05:05:29;;;;;;;11.90;4.60;;;;;;;16.82;88.01;99020.16;4221429;28;20235;-74
2023/08/02 05:07:55;;;;;;;9.70;4.47;;;;;;;16.86;87.75;99026.03;4232579;28;20236;-74
2023/08/02 05:10:22;;;;;;;8.27;4.20;;;;;;;16.91;87.40;99013.38;4238352;28;20294;-76
2023/08/02 05:12:49;;;;;;;7.90;4.20;;;;;;;16.77;87.55;99014.53;4231741;28;20298;-73
2023/08/02 05:15:16;;;;;;;7.67;4.13;;;;;;;17.04;86.70;99020.63;4230581;28;20824;-76
2023/08/02 05:17:42;;;;;;;8.70;4.50;;;;;;;16.98;86.57;99023.44;4217081;28;20403;-74
2023/08/02 05:20:09;;;;;;;11.13;4.70;;;;;;;16.89;86.40;99014.63;4232003;28;20361;-73
2023/08/02 05:22:36;;;;;;;8.97;4.27;;;;;;;16.94;86.24;99012.13;4227883;28;20557;-75
2023/08/02 05:25:03;;;;;;;15.73;4.53;;;;;;;16.91;86.00;99015.25;4234200;28;20270;-75
2023/08/02 05:27:29;;;;;;;10.57;4.00;;;;;;;16.97;86.17;99019.03;4228954;28;22200;-75
2023/08/02 05:29:56;;;;;;;10.00;4.63;;;;;;;17.02;85.70;99017.28;4235782;28;20308;-73
2023/08/02 05:32:24;;;;;;;11.30;4.57;;;;;;;17.17;85.79;99018.84;4215378;28;20408;-74
2023/08/02 05:34:50;;;;;;;7.27;3.97;;;;;;;17.64;82.81;99008.19;4231284;28;20245;-73
2023/08/02 05:37:17;;;;;;;8.90;4.13;;;;;;;17.66;83.34;99013.47;4235625;28;20227;-74
2023/08/02 05:39:44;;;;;;;11.07;4.27;;;;;;;17.54;83.31;99016.94;4232743;28;20281;-75
2023/08/02 05:42:10;;;;;;;11.10;4.63;;;;;;;17.49;82.36;99015.94;4235636;28;20235;-76
2023/08/02 05:44:39;;;;;;;6.20;3.90;;;;;;;17.41;82.45;99014.38;4216308;28;21107;-75
2023/08/02 05:47:06;;;;;;;10.63;3.83;;;;;;;17.63;82.20;99019.38;4218275;28;20243;-76
2023/08/02 05:49:32;;;;;;;7.47;4.30;;;;;;;17.81;81.06;99021.28;4231007;28;20238;-76
2023/08/02 05:51:59;;;;;;;9.90;3.80;;;;;;;17.78;81.72;99025.31;4229031;28;20290;-77
2023/08/02 05:54:26;;;;;;;9.77;4.47;;;;;;;18.23;79.98;99021.38;4228455;28;20431;-74
2023/08/02 05:56:53;;;;;;;10.00;3.73;;;;;;;18.69;78.26;99028.03;4249316;28;26288;-77
2023/08/02 05:59:20;;;;;;;5.80;3.77;;;;;;;18.96;76.36;99019.41;4255161;28;20239;-76
2023/08/02 06:01:46;;;;;;;6.03;3.73;;;;;;;19.67;73.42;99020.44;4236158;28;21689;-45
2023/08/02 06:05:48;;;;;;;7.03;3.73;;;;;;;20.77;69.76;99023.13;4294380;28;21989;-67
2023/08/02 06:08:15;;;;;;;9.37;3.80;;;;;;;21.65;66.66;99038.19;4264910;28;20656;-65
2023/08/02 06:10:42;;;;;;;5.87;3.33;;;;;;;22.85;60.58;99032.94;4274370;28;20255;-75
2023/08/02 06:13:08;;;;;;;7.37;3.47;;;;;;;22.42;62.07;99035.56;4275521;28;20653;-67
2023/08/02 06:15:35;;;;;;;5.80;2.97;;;;;;;22.46;62.86;99034.78;4261770;28;22009;-67
2023/08/02 06:18:02;;;;;;;7.77;3.00;;;;;;;22.43;61.86;99038.06;4283617;28;22191;-66
2023/08/02 06:20:29;;;;;;;6.47;3.50;;;;;;;23.06;60.30;99040.28;4251958;28;20403;-68
2023/08/02 06:22:55;;;;;;;8.13;4.07;;;;;;;22.68;59.93;99035.78;4254776;28;20260;-68
2023/08/02 06:25:22;;;;;;;7.73;3.50;;;;;;;20.82;65.92;99044.38;4257911;28;20310;-67
2023/08/02 06:27:48;;;;;;;10.33;3.70;;;;;;;20.05;68.99;99043.78;4252506;28;20234;-66
2023/08/02 06:30:15;;;;;;;9.53;3.40;;;;;;;20.86;66.27;99040.88;4239043;28;20256;-69
2023/08/02 06:32:42;;;;;;;6.13;3.40;;;;;;;21.78;63.71;99039.75;4255257;28;21633;-68
2023/08/02 06:35:09;;;;;;;6.63;3.10;;;;;;;21.42;64.78;99050.25;4258769;28;20241;-71
2023/08/02 06:37:36;;;;;;;9.23;3.47;;;;;;;21.68;64.00;99049.53;4300774;28;20229;-69
2023/08/02 06:40:03;;;;;;;7.00;2.87;;;;;;;23.60;57.14;99043.97;4304935;28;20298;-73
2023/08/02 06:42:30;;;;;;;8.40;3.33;;;;;;;25.89;50.81;99053.06;4266874;28;20417;-68
2023/08/02 06:44:57;;;;;;;5.20;2.70;;;;;;;27.12;47.07;99047.91;4280215;28;20234;-67
2023/08/02 06:47:25;;;;;;;7.00;3.50;;;;;;;27.60;45.70;99049.13;4283186;28;22453;-69
2023/08/02 06:49:51;;;;;;;9.40;2.97;;;;;;;28.57;43.47;99051.81;4252689;28;20732;-72
2023/08/02 06:52:18;;;;;;;8.20;3.13;;;;;;;28.30;43.16;99054.13;4269486;28;20324;-69
2023/08/02 06:54:45;;;;;;;6.03;3.30;;;;;;;28.55;42.34;99063.22;4276918;28;22112;-69
2023/08/02 06:57:11;;;;;;;6.80;2.70;;;;;;;28.42;44.17;99064.81;4256580;28;20231;-71
2023/08/02 06:59:38;;;;;;;5.47;2.77;;;;;;;27.02;47.04;99059.09;4243231;28;20312;-68
2023/08/02 07:02:06;;;;;;;13.40;3.58;;;;;;;27.19;45.84;99059.50;4241892;28;20231;-68
2023/08/02 07:04:32;;;;;;;5.37;2.43;;;;;;;28.11;43.84;99065.25;4235837;28;20635;-70
2023/08/02 07:07:00;;;;;;;7.40;2.90;;;;;;;29.33;40.44;99067.59;4238194;28;20241;-69
2023/08/02 07:09:29;;;;;;;7.63;2.73;;;;;;;28.72;41.29;99076.66;4247253;28;25342;-73
2023/08/02 07:12:25;;;;;;;4.57;2.87;;;;;;;28.04;43.29;99081.44;4263467;27;20539;-72
2023/08/02 07:14:51;;;;;;;9.97;2.67;;;;;;;28.06;43.20;99079.19;4231338;28;20611;-70
2023/08/02 07:17:18;;;;;;;4.17;2.70;;;;;;;26.32;47.67;99083.13;4240286;28;20231;-72
2023/08/02 07:19:44;;;;;;;6.40;2.57;;;;;;;29.65;40.23;99077.06;4239630;28;20232;-72
2023/08/02 07:22:17;;;;;;;6.47;2.60;;;;;;;26.11;46.92;99082.41;4230428;28;20585;-70
2023/08/02 07:24:44;;;;;;;3.63;2.50;;;;;;;26.66;46.40;99078.78;4234690;28;20236;-74
2023/08/02 07:27:10;;;;;;;4.10;2.63;;;;;;;24.93;49.95;99069.53;4254238;28;22275;-72
2023/08/02 07:33:25;;;;;;;5.13;2.80;;;;;;;24.39;52.19;99077.19;4264311;28;20561;-74
2023/08/02 07:35:52;;;;;;;6.67;2.70;;;;;;;24.57;51.54;99062.03;4188152;28;20280;-73
2023/08/02 07:38:18;;;;;;;4.77;2.70;;;;;;;25.87;49.32;99069.16;4205111;28;20561;-73
2023/08/02 07:40:45;;;;;;;6.13;2.00;;;;;;;27.25;44.92;99078.91;4211020;28;20238;-73
2023/08/02 07:43:13;;;;;;;5.80;2.37;;;;;;;25.55;48.78;99081.44;4221137;28;20324;-73
2023/08/02 07:45:40;;;;;;;6.53;2.50;;;;;;;27.53;44.25;99080.06;4248972;28;20236;-75
2023/08/02 07:48:06;;;;;;;6.93;2.60;;;;;;;27.61;44.46;99084.97;4195293;28;20243;-78
2023/08/02 07:50:33;;;;;;;4.43;2.50;;;;;;;27.55;43.61;99083.38;4220574;28;20507;-79
2023/08/02 07:53:00;;;;;;;3.57;2.17;;;;;;;27.37;44.21;99090.47;4238472;28;21025;-76
2023/08/02 07:57:27;;;;;;;7.40;2.43;;;;;;;25.46;49.11;99091.44;4252924;28;20714;-65
2023/08/02 08:01:09;;;;;;;5.50;2.43;;;;;;;25.41;49.08;99092.28;4292350;27;20378;-74
2023/08/02 08:03:36;;;;;;;12.33;2.80;;;;;;;25.00;50.46;99086.72;4253327;28;25760;-72
2023/08/02 08:06:13;;;;;;;6.50;2.70;;;;;;;25.23;49.65;99092.78;4267454;28;21850;-73
2023/08/02 08:08:41;;;;;;;7.13;2.60;;;;;;;25.28;51.08;99092.81;4234768;28;20238;-71
2023/08/02 08:11:45;;;;;;;6.60;2.83;;;;;;;24.68;50.60;99083.09;4281911;28;20588;-76
2023/08/02 08:14:11;;;;;;;6.07;2.83;;;;;;;24.49;51.76;99084.69;4251410;28;20222;-76
2023/08/02 08:16:38;;;;;;;5.80;2.70;;;;;;;24.60;51.11;99085.53;4278810;28;20223;-77
2023/08/02 08:19:05;;;;;;;7.07;2.97;;;;;;;24.05;53.28;99095.06;4247866;28;21259;-76
2023/08/02 08:21:32;;;;;;;5.67;2.20;;;;;;;24.57;50.90;99092.44;4261187;28;20636;-73
2023/08/02 08:24:00;;;;;;;9.70;2.60;;;;;;;24.70;50.81;99096.63;4256174;28;20388;-73
2023/08/02 08:26:27;;;;;;;6.13;2.53;;;;;;;24.45;51.35;99092.69;4277902;28;20280;-74
2023/08/02 08:50:22;;;;;;;6.20;2.80;;;;;;;23.36;52.63;99102.34;4346019;27;20576;-72
2023/08/02 08:52:52;;;;;;;4.17;2.30;;;;;;;23.73;51.07;99107.03;4291634;28;20351;-72
2023/08/02 08:55:28;;;;;;;4.77;2.37;;;;;;;24.02;50.27;99114.09;4264029;28;22160;-75
2023/08/02 08:57:55;;;;;;;7.33;2.30;;;;;;;23.87;50.15;99098.25;4285862;28;20632;-73
2023/08/02 09:00:26;;;;;;;4.97;2.40;;;;;;;23.10;54.20;99115.09;4235805;28;21109;-74
2023/08/02 09:02:53;;;;;;;4.93;2.27;;;;;;;23.07;54.20;99112.84;4279507;28;20334;-75
2023/08/02 09:05:21;;;;;;;4.77;1.97;;;;;;;23.66;49.52;99097.28;4267451;28;20234;-76
2023/08/02 09:07:47;;;;;;;5.40;1.57;;;;;;;23.75;49.64;99109.50;4267284;28;20508;-72
2023/08/02 12:53:41;;;;;;;2.63;1.53;;;;;;;24.39;44.04;98988.69;4279142;28;20566;-71
2023/08/02 12:56:08;;;;;;;4.23;1.40;;;;;;;24.92;42.76;98971.84;4254227;28;20920;-76
2023/08/02 12:58:34;;;;;;;5.67;1.90;;;;;;;25.45;41.45;98978.94;4228369;28;20296;-71
2023/08/02 13:01:01;;;;;;;3.43;1.60;;;;;;;25.62;41.05;98975.84;4240458;28;20621;-74
2023/08/02 13:03:27;;;;;;;4.60;1.40;;;;;;;25.75;39.94;98982.72;4252827;28;20339;-74
2023/08/02 13:05:54;;;;;;;11.60;1.60;;;;;;;25.67;39.67;98969.44;4229714;28;20228;-74
2023/08/02 13:08:21;;;;;;;11.53;2.10;;;;;;;25.47;40.01;98968.44;4247911;28;20246;-74
2023/08/02 13:10:48;;;;;;;7.33;1.80;;;;;;;25.35;39.96;98967.84;4251878;28;20506;-74
2023/08/02 13:13:14;;;;;;;2.80;1.43;;;;;;;25.03;41.88;98978.19;4248215;28;20246;-75
2023/08/02 13:15:43;;;;;;;2.10;1.30;;;;;;;24.92;41.06;98974.59;4243002;28;20357;-76
2023/08/02 13:18:10;;;;;;;4.50;1.50;;;;;;;25.13;41.00;98969.03;4269034;28;20234;-75
2023/08/02 13:20:36;;;;;;;3.07;1.40;;;;;;;24.88;41.54;98964.38;4252523;28;20234;-76
2023/08/02 13:23:03;;;;;;;5.10;1.70;;;;;;;24.75;42.01;98963.00;4240862;28;20679;-73
2023/08/02 13:25:33;;;;;;;6.80;1.70;;;;;;;24.43;42.89;98964.09;4258158;28;20306;-73
2023/08/02 13:28:01;;;;;;;8.93;1.73;;;;;;;23.97;45.67;98962.91;4255579;28;20326;-73
2023/08/02 13:30:27;;;;;;;3.20;1.53;;;;;;;24.31;43.69;98962.41;4240569;28;20613;-77
2023/08/02 13:32:54;;;;;;;3.53;1.80;;;;;;;24.53;43.50;98967.69;4240962;28;21079;-77
2023/08/02 13:35:21;;;;;;;3.97;1.57;;;;;;;24.62;43.17;98965.19;4248952;28;20516;-74
2023/08/02 13:37:47;;;;;;;7.27;1.87;;;;;;;24.76;43.05;98956.34;4232300;28;20241;-79
2023/08/02 13:40:15;;;;;;;6.17;1.97;;;;;;;25.09;42.29;98954.91;4225158;28;21128;-75
2023/08/02 13:42:42;;;;;;;5.43;1.60;;;;;;;25.41;41.22;98944.63;4247550;28;20339;-74
2023/08/02 13:45:08;;;;;;;6.50;2.10;;;;;;;25.86;40.38;98950.22;4244643;28;20875;-75
2023/08/02 13:47:35;;;;;;;7.23;1.80;;;;;;;25.59;40.46;98946.75;4251751;28;20231;-76
2023/08/02 13:50:02;;;;;;;3.30;1.60;;;;;;;25.47;40.53;98946.25;4246508;28;20321;-76
2023/08/02 13:52:29;;;;;;;5.23;1.60;;;;;;;25.36;40.84;98953.75;4246787;28;20307;-75
2023/08/02 13:54:56;;;;;;;8.23;1.80;;;;;;;24.99;42.08;98944.69;4246725;28;20726;-74
2023/08/02 13:57:22;;;;;;;7.23;2.00;;;;;;;25.10;41.49;98944.69;4257797;28;20486;-73
2023/08/02 13:59:49;;;;;;;7.53;2.03;;;;;;;24.98;42.23;98942.22;4251290;28;20285;-74
2023/08/02 14:02:15;;;;;;;11.63;2.23;;;;;;;25.04;42.42;98943.84;4258150;28;21582;-73
2023/08/02 14:04:42;;;;;;;9.83;2.33;;;;;;;24.93;42.25;98944.97;4250531;28;21734;-71
2023/08/02 14:07:12;;;;;;;7.37;1.90;;;;;;;24.93;42.84;98937.50;4241290;28;20294;-74
2023/08/02 14:09:41;;;;;;;13.10;2.00;;;;;;;24.73;43.16;98937.56;4231990;28;20339;-74
2023/08/02 14:12:15;;;;;;;9.37;1.80;;;;;;;24.77;42.77;98935.88;4228353;28;20239;-75
2023/08/02 14:14:42;;;;;;;10.53;1.90;;;;;;;25.02;42.76;98929.47;4260470;28;21917;-72
2023/08/02 14:17:10;;;;;;;9.63;1.83;;;;;;;25.42;41.78;98936.03;4251548;28;20318;-74
2023/08/02 14:19:36;;;;;;;6.30;1.83;;;;;;;25.23;41.74;98938.56;4247235;28;20239;-74
2023/08/02 14:22:04;;;;;;;8.53;2.00;;;;;;;25.02;42.78;98936.94;4240082;28;20236;-74
2023/08/02 14:24:30;;;;;;;4.57;1.63;;;;;;;24.74;42.92;98919.81;4238061;28;20898;-75
2023/08/02 14:26:57;;;;;;;5.60;1.60;;;;;;;24.67;43.04;98932.00;4221093;28;20270;-74
2023/08/02 14:29:26;;;;;;;8.30;1.70;;;;;;;24.59;43.08;98920.66;4243197;28;21807;-74
2023/08/02 14:31:53;;;;;;;6.83;2.30;;;;;;;24.47;43.94;98924.50;4221799;28;20249;-74
2023/08/02 14:34:23;;;;;;;9.77;2.23;;;;;;;24.60;43.87;98925.06;4250132;28;20416;-74
2023/08/02 14:36:50;;;;;;;4.13;1.90;;;;;;;24.71;42.82;98926.75;4228031;28;21051;-74
2023/08/02 14:39:17;;;;;;;5.50;1.97;;;;;;;24.68;42.21;98908.75;4236191;28;20453;-76
2023/08/02 14:41:44;;;;;;;6.07;1.90;;;;;;;24.81;42.21;98912.09;4248638;28;20272;-74
2023/08/02 14:44:10;;;;;;;7.03;1.70;;;;;;;25.07;41.45;98912.84;4253112;28;20227;-74
2023/08/02 14:46:38;;;;;;;10.20;1.77;;;;;;;25.31;41.40;98904.75;4250826;28;20226;-75
2023/08/02 14:49:04;;;;;;;23.27;2.37;;;;;;;25.16;42.40;98905.59;4219612;28;20277;-73
2023/08/02 14:51:31;;;;;;;10.47;1.80;;;;;;;25.09;42.52;98916.16;4232185;28;20287;-75
2023/08/02 14:53:59;;;;;;;8.37;1.80;;;;;;;24.78;42.67;98918.16;4220483;28;20236;-76
2023/08/02 14:56:39;;;;;;;6.27;1.50;;;;;;;24.68;42.68;98910.72;4290581;28;20231;-74
2023/08/02 14:59:07;;;;;;;1.67;1.20;;;;;;;24.59;43.08;98901.28;4261134;28;20251;-74
2023/08/02 15:01:34;;;;;;;4.07;1.50;;;;;;;24.50;43.16;98901.84;4253044;28;20236;-75
2023/08/02 15:04:00;;;;;;;9.40;1.57;;;;;;;24.64;42.76;98917.88;4233621;28;21631;-75
2023/08/02 15:06:27;;;;;;;4.80;1.30;;;;;;;24.78;42.97;98912.63;4233382;28;23313;-73
2023/08/02 15:08:54;;;;;;;5.07;1.70;;;;;;;24.86;42.54;98908.44;4218772;28;22503;-76
2023/08/02 15:11:31;;;;;;;5.57;1.80;;;;;;;25.03;42.22;98905.38;4300193;27;20578;-75
2023/08/02 15:14:03;;;;;;;3.77;1.27;;;;;;;25.09;42.11;98907.03;4256452;27;21724;-75
2023/08/02 15:16:29;;;;;;;4.10;1.53;;;;;;;25.06;42.16;98893.75;4265262;27;20247;-75
2023/08/02 15:18:57;;;;;;;5.57;1.50;;;;;;;25.04;41.93;98887.69;4267953;27;21747;-74
2023/08/02 15:21:24;;;;;;;5.83;1.70;;;;;;;24.89;42.31;98892.13;4283123;27;23170;-77
2023/08/02 15:25:57;;;;;;;7.87;1.70;;;;;;;25.43;41.51;98895.28;4335867;27;22179;-65
2023/08/02 15:28:24;;;;;;;13.73;1.63;;;;;;;25.66;41.28;98901.28;4285187;27;20256;-66
2023/08/02 15:30:51;;;;;;;7.70;1.50;;;;;;;25.53;41.41;98903.56;4281865;27;20296;-66
2023/08/02 15:33:17;;;;;;;11.20;1.87;;;;;;;25.43;42.04;98896.13;4289331;27;20413;-66
2023/08/02 15:35:44;;;;;;;2.93;1.20;;;;;;;25.49;41.71;98902.50;4284871;27;20229;-66
2023/08/02 15:38:10;;;;;;;3.50;1.60;;;;;;;25.53;41.73;98895.25;4265652;27;20226;-65
2023/08/02 15:40:37;;;;;;;10.57;1.43;;;;;;;25.40;41.50;98902.22;4266813;27;20677;-65
2023/08/02 15:43:04;;;;;;;4.20;1.70;;;;;;;25.22;42.38;98900.06;4272587;27;20228;-65
2023/08/02 15:45:33;;;;;;;6.83;1.37;;;;;;;25.12;42.20;98899.00;4285055;27;20323;-66
2023/08/02 15:47:59;;;;;;;7.57;1.73;;;;;;;24.95;42.96;98895.72;4293523;27;20686;-65